Ariton, Alabama
Current Conditions -  °F | °C
As of 1:53 AM on Saturday 20 Dec 2014 (Local Time) from KLOR Reporting Station
Light Rain Light Rain  
Wind Chill: 47°   Ceiling: 2000
Heat Index: 47°   Visibility: 6mi
Dew Point: 45°   Wind: 3mph
Humidity: 93%   Direction: 80°E
Pressure: 30.1"   Gusts: NA
Location:  31.6°N, 85.72°W
Report Text: KLOR 200753Z AUTO 08003KT 6SM -RA BR SCT008 OVC020 08/07 A3010 RMK AO2 RAB25 SLP193 T00830072 TSNO PNO $
Loading
Personal Weather Stations






























Interactive Weather Map New forecast layout! Learn more

10-Day Weather Forecast

Advertisements
Track Severe Weather on mobile